Time;durP1;ratioP1;P1;durP2;ratioP2;P2;SDS_P1;SDS_P2;PMS_P1;PMS_P2;Temp;Humidity;BMP_temperature;BMP_pressure;BME280_temperature;BME280_humidity;BME280_pressure;Samples;Min_cycle;Max_cycle;Signal;HPM_P1;HPM_P2
2024/02/22 00:01:43;;;;;;;5.50;2.80;;;8.90;99.90;;;;;;5072023;28;20251;-58
2024/02/22 00:04:08;;;;;;;4.57;3.47;;;8.90;99.90;;;;;;5071800;28;20312;-59
2024/02/22 00:06:37;;;;;;;2.83;2.43;;;8.90;99.90;;;;;;5072562;28;20198;-59
2024/02/22 00:09:03;;;;;;;3.87;2.50;;;8.90;99.90;;;;;;5091850;28;20187;-59
2024/02/22 00:11:29;;;;;;;3.90;2.53;;;8.90;99.90;;;;;;5092249;28;20412;-58
2024/02/22 00:13:54;;;;;;;2.70;2.50;;;8.90;99.90;;;;;;5087282;28;20238;-58
2024/02/22 00:16:20;;;;;;;5.47;3.40;;;8.90;99.90;;;;;;5080242;28;20325;-58
2024/02/22 00:18:46;;;;;;;11.00;2.90;;;8.90;99.90;;;;;;5071720;28;20269;-58
2024/02/22 00:21:13;;;;;;;3.83;2.37;;;9.00;99.90;;;;;;5075599;28;20264;-57
2024/02/22 00:23:39;;;;;;;5.90;3.60;;;8.90;99.90;;;;;;5086089;28;20379;-57
2024/02/22 00:26:05;;;;;;;2.80;2.53;;;8.90;99.90;;;;;;5091504;28;20432;-59
2024/02/22 00:28:31;;;;;;;5.07;3.10;;;8.90;99.90;;;;;;5091451;28;20420;-57
2024/02/22 00:30:57;;;;;;;5.53;3.30;;;9.00;99.90;;;;;;5089383;28;20411;-59
2024/02/22 00:33:22;;;;;;;8.23;3.10;;;9.00;99.90;;;;;;5089886;28;20545;-60
2024/02/22 00:35:48;;;;;;;4.90;2.20;;;9.00;99.90;;;;;;5083417;28;20220;-58
2024/02/22 00:38:13;;;;;;;4.70;2.83;;;9.00;99.90;;;;;;5086871;28;20174;-59
2024/02/22 00:40:39;;;;;;;4.93;2.03;;;9.00;99.90;;;;;;5090573;28;20188;-59
2024/02/22 00:43:05;;;;;;;5.43;2.27;;;9.00;99.90;;;;;;5091662;28;20169;-59
2024/02/22 00:45:33;;;;;;;5.20;2.97;;;9.00;99.90;;;;;;5085261;28;20249;-58
2024/02/22 00:48:00;;;;;;;7.53;2.47;;;9.00;99.90;;;;;;5071266;28;20433;-59
2024/02/22 00:50:28;;;;;;;3.80;3.00;;;9.00;99.90;;;;;;5072000;28;20884;-57
2024/02/22 00:52:55;;;;;;;4.23;2.80;;;9.00;99.90;;;;;;5070595;28;20417;-58
2024/02/22 00:55:21;;;;;;;6.80;2.40;;;9.00;99.90;;;;;;5070957;28;20974;-58
2024/02/22 00:57:47;;;;;;;3.10;2.50;;;9.00;99.90;;;;;;5071932;28;20419;-56
2024/02/22 01:00:12;;;;;;;3.10;2.20;;;9.00;99.90;;;;;;5091149;28;20498;-59
2024/02/22 01:02:38;;;;;;;3.93;2.70;;;9.00;99.90;;;;;;5090974;28;20165;-58
2024/02/22 01:05:04;;;;;;;2.90;2.40;;;9.00;99.90;;;;;;5090873;28;20193;-59
2024/02/22 01:07:33;;;;;;;4.27;2.57;;;9.00;99.90;;;;;;5091012;28;20769;-59
2024/02/22 01:09:58;;;;;;;3.53;2.13;;;9.00;99.90;;;;;;5090570;28;20412;-59
2024/02/22 01:12:24;;;;;;;6.50;2.73;;;9.10;99.90;;;;;;5090869;28;20733;-59
2024/02/22 01:14:50;;;;;;;3.50;2.23;;;9.10;99.90;;;;;;5084859;28;20205;-59
2024/02/22 01:17:16;;;;;;;4.10;2.00;;;9.10;99.90;;;;;;5090822;28;20201;-59
2024/02/22 01:19:45;;;;;;;3.37;2.30;;;9.00;99.90;;;;;;5082878;28;20296;-59
2024/02/22 01:22:10;;;;;;;7.30;2.60;;;9.10;99.90;;;;;;5069411;28;20880;-60
2024/02/22 01:24:36;;;;;;;2.60;2.30;;;9.10;99.90;;;;;;5070168;28;20428;-59
2024/02/22 01:27:01;;;;;;;2.63;2.00;;;9.10;99.90;;;;;;5070506;28;20537;-60
2024/02/22 01:29:27;;;;;;;7.33;3.20;;;9.10;99.90;;;;;;5080070;28;20177;-60
2024/02/22 01:31:53;;;;;;;4.33;2.50;;;9.10;99.90;;;;;;5080618;28;20285;-59
2024/02/22 01:34:18;;;;;;;3.57;2.03;;;9.10;99.90;;;;;;5090227;28;20668;-60
2024/02/22 01:36:44;;;;;;;7.43;2.23;;;9.20;99.90;;;;;;5090457;28;20289;-60
2024/02/22 01:39:09;;;;;;;3.63;2.33;;;9.20;99.90;;;;;;5090383;28;20181;-60
2024/02/22 01:41:36;;;;;;;4.93;2.27;;;9.20;99.90;;;;;;5090645;28;20225;-60
2024/02/22 01:44:01;;;;;;;4.03;2.00;;;9.20;99.90;;;;;;5090374;28;20747;-60
2024/02/22 01:46:28;;;;;;;1.97;1.87;;;9.20;99.90;;;;;;5076506;28;20441;-59
2024/02/22 01:48:54;;;;;;;3.60;2.30;;;9.30;99.90;;;;;;5071915;28;20196;-60
2024/02/22 01:51:20;;;;;;;7.23;2.23;;;9.30;99.90;;;;;;5090722;28;20439;-59
2024/02/22 01:53:49;;;;;;;5.23;2.13;;;9.30;99.90;;;;;;5090321;28;20414;-61
2024/02/22 01:56:17;;;;;;;3.50;1.53;;;9.30;99.90;;;;;;5090379;28;20918;-58
2024/02/22 01:58:43;;;;;;;2.20;1.93;;;9.30;99.90;;;;;;5090415;28;20778;-59
2024/02/22 02:01:10;;;;;;;2.97;1.60;;;9.30;99.90;;;;;;5070722;28;20404;-59
2024/02/22 02:03:39;;;;;;;2.77;1.80;;;9.40;99.90;;;;;;5078557;28;20405;-57
2024/02/22 02:06:05;;;;;;;3.47;1.90;;;9.40;99.90;;;;;;5073126;28;20930;-60
2024/02/22 02:08:32;;;;;;;5.53;2.10;;;9.40;99.90;;;;;;5089934;28;20916;-59
2024/02/22 02:10:57;;;;;;;1.50;1.40;;;9.40;99.90;;;;;;5090021;28;20412;-60
2024/02/22 02:13:23;;;;;;;2.43;1.63;;;9.50;99.90;;;;;;5089989;28;20535;-59
2024/02/22 02:15:49;;;;;;;3.33;1.90;;;9.50;99.90;;;;;;5089898;28;20451;-60
2024/02/22 02:18:15;;;;;;;2.87;1.47;;;9.50;99.90;;;;;;5089921;28;20259;-60
2024/02/22 02:20:54;;;;;;;4.90;1.60;;;9.60;99.90;;;;;;5090061;28;20436;-59
2024/02/22 02:23:24;;;;;;;1.70;1.60;;;9.60;99.90;;;;;;5083711;28;20193;-60
2024/02/22 02:25:50;;;;;;;1.50;1.37;;;9.60;99.90;;;;;;5090140;28;20515;-60
2024/02/22 02:28:16;;;;;;;2.80;1.30;;;9.60;99.90;;;;;;5089149;28;20790;-59
2024/02/22 02:30:41;;;;;;;2.37;1.30;;;9.60;99.90;;;;;;5082532;28;20200;-60
2024/02/22 02:33:07;;;;;;;2.47;1.50;;;9.60;99.90;;;;;;5082876;28;20173;-60
2024/02/22 02:35:37;;;;;;;4.70;1.83;;;9.60;99.90;;;;;;5090158;28;20208;-60
2024/02/22 02:38:09;;;;;;;1.33;1.10;;;9.60;99.90;;;;;;5089990;28;20173;-60
2024/02/22 02:40:35;;;;;;;1.73;1.50;;;9.70;99.90;;;;;;5080858;28;20432;-59
2024/02/22 02:43:00;;;;;;;2.07;1.40;;;9.60;99.90;;;;;;5078815;28;20504;-59
2024/02/22 02:45:26;;;;;;;4.67;1.63;;;9.60;99.90;;;;;;5071153;28;20673;-60
2024/02/22 02:47:52;;;;;;;4.37;2.40;;;9.60;99.90;;;;;;5059062;28;20525;-57
2024/02/22 02:50:18;;;;;;;3.23;1.60;;;9.60;99.90;;;;;;5073368;28;20416;-60
2024/02/22 02:52:43;;;;;;;1.70;1.60;;;9.60;99.90;;;;;;5073262;28;20257;-59
2024/02/22 02:55:12;;;;;;;3.40;1.77;;;9.60;99.90;;;;;;5072802;28;20214;-60
2024/02/22 02:57:38;;;;;;;3.47;1.83;;;9.70;99.90;;;;;;5080835;28;20165;-60
2024/02/22 03:00:09;;;;;;;2.30;1.57;;;9.70;99.90;;;;;;5077430;28;20416;-60
2024/02/22 03:02:34;;;;;;;2.20;1.43;;;9.70;99.90;;;;;;5081074;28;20919;-59
2024/02/22 03:05:00;;;;;;;3.93;1.77;;;9.70;99.90;;;;;;5081342;28;20439;-60
2024/02/22 03:07:25;;;;;;;1.37;1.03;;;9.70;99.90;;;;;;5073081;28;20334;-60
2024/02/22 03:09:51;;;;;;;1.83;1.30;;;9.80;99.90;;;;;;5072888;28;20170;-59
2024/02/22 03:12:17;;;;;;;1.40;1.13;;;9.80;99.90;;;;;;5073320;28;20612;-58
2024/02/22 03:14:43;;;;;;;1.70;1.40;;;9.80;99.90;;;;;;5080811;28;20193;-60
2024/02/22 03:17:08;;;;;;;2.20;1.30;;;9.80;99.90;;;;;;5093245;28;20205;-60
2024/02/22 03:19:34;;;;;;;1.73;1.50;;;9.80;99.90;;;;;;5093183;28;20438;-58
2024/02/22 03:22:00;;;;;;;1.20;1.10;;;9.80;99.90;;;;;;5074865;28;20216;-60
2024/02/22 03:24:26;;;;;;;1.30;1.07;;;9.80;99.90;;;;;;5072657;28;20194;-58
2024/02/22 03:26:53;;;;;;;2.40;1.50;;;9.90;99.90;;;;;;5081384;28;20212;-60
2024/02/22 03:29:21;;;;;;;1.47;1.20;;;9.90;99.90;;;;;;5075727;28;20209;-59
2024/02/22 03:31:46;;;;;;;3.40;1.40;;;9.90;99.90;;;;;;5086414;28;20404;-58
2024/02/22 03:34:12;;;;;;;4.53;1.10;;;10.00;99.90;;;;;;5072762;28;20417;-60
2024/02/22 03:36:41;;;;;;;2.50;1.40;;;10.00;99.90;;;;;;5072426;28;20182;-59
2024/02/22 03:39:11;;;;;;;2.73;1.47;;;10.00;99.90;;;;;;5072262;28;20174;-60
2024/02/22 03:41:37;;;;;;;1.30;1.20;;;9.90;99.90;;;;;;5072590;28;20405;-58
2024/02/22 03:44:03;;;;;;;1.13;1.03;;;10.10;99.90;;;;;;5072138;28;20776;-59
2024/02/22 03:46:29;;;;;;;2.00;1.47;;;10.00;99.90;;;;;;5072797;28;20424;-60
2024/02/22 03:48:54;;;;;;;1.47;1.17;;;10.00;99.90;;;;;;5081595;28;20511;-60
2024/02/22 03:51:22;;;;;;;1.93;1.53;;;10.00;99.90;;;;;;5092512;28;20592;-60
2024/02/22 03:53:48;;;;;;;3.70;1.30;;;10.00;99.90;;;;;;5092186;28;20260;-60
2024/02/22 03:56:14;;;;;;;1.43;1.33;;;10.00;99.90;;;;;;5092078;28;20467;-59
2024/02/22 03:58:39;;;;;;;4.00;1.20;;;10.00;99.90;;;;;;5092402;28;20507;-59
2024/02/22 04:01:05;;;;;;;1.20;1.10;;;9.90;99.90;;;;;;5092123;28;20174;-59
2024/02/22 04:03:31;;;;;;;2.00;1.47;;;9.90;99.90;;;;;;5092164;28;20677;-60
2024/02/22 04:05:57;;;;;;;1.20;1.10;;;9.90;99.90;;;;;;5085051;28;20475;-60
2024/02/22 04:08:22;;;;;;;1.87;1.53;;;9.80;99.90;;;;;;5079493;28;20809;-59
2024/02/22 04:10:48;;;;;;;2.00;1.47;;;9.80;99.90;;;;;;5071925;28;20185;-58
2024/02/22 04:13:13;;;;;;;1.63;1.53;;;9.70;99.90;;;;;;5071587;28;20304;-57
2024/02/22 04:15:39;;;;;;;1.37;1.20;;;9.80;99.90;;;;;;5071898;28;20198;-59
2024/02/22 04:18:05;;;;;;;4.07;1.50;;;9.70;99.90;;;;;;5071730;28;20182;-60
2024/02/22 04:20:30;;;;;;;1.80;1.30;;;9.70;99.90;;;;;;5071878;28;20249;-60
2024/02/22 04:22:56;;;;;;;1.20;1.10;;;9.80;99.90;;;;;;5087747;28;20586;-59
2024/02/22 04:25:22;;;;;;;1.77;1.60;;;9.90;99.90;;;;;;5092071;28;20197;-59
2024/02/22 04:27:48;;;;;;;2.17;1.70;;;9.80;99.90;;;;;;5091735;28;20412;-60
2024/02/22 04:30:14;;;;;;;1.50;1.40;;;9.80;99.90;;;;;;5091166;28;21413;-58
2024/02/22 04:32:39;;;;;;;1.13;1.10;;;9.70;99.90;;;;;;5091442;28;20673;-59
2024/02/22 04:35:06;;;;;;;1.40;1.00;;;9.70;99.90;;;;;;5091330;28;20185;-59
2024/02/22 04:37:32;;;;;;;4.23;1.33;;;9.70;99.90;;;;;;5091379;28;20419;-59
2024/02/22 04:39:58;;;;;;;1.30;1.20;;;9.80;99.90;;;;;;5084291;28;20495;-59
2024/02/22 04:42:24;;;;;;;5.53;1.40;;;9.90;99.90;;;;;;5091553;28;20508;-59
2024/02/22 04:44:49;;;;;;;1.30;1.20;;;9.80;99.90;;;;;;5091135;28;20455;-59
2024/02/22 04:47:15;;;;;;;1.33;1.23;;;9.80;99.90;;;;;;5088777;28;20170;-59
2024/02/22 04:49:41;;;;;;;1.73;1.40;;;9.80;99.90;;;;;;5070962;28;20793;-58
2024/02/22 04:52:07;;;;;;;2.70;1.03;;;9.80;99.90;;;;;;5070843;28;20182;-58
2024/02/22 04:54:32;;;;;;;1.40;1.30;;;9.70;99.90;;;;;;5079317;28;20202;-59
2024/02/22 04:56:59;;;;;;;1.23;1.13;;;9.70;99.90;;;;;;5081113;28;20452;-59
2024/02/22 04:59:24;;;;;;;1.63;1.53;;;9.80;99.90;;;;;;5091102;28;20166;-59
2024/02/22 05:01:50;;;;;;;2.50;1.57;;;9.90;99.90;;;;;;5091211;28;20734;-57
2024/02/22 05:04:16;;;;;;;1.47;1.23;;;10.00;99.90;;;;;;5090727;28;20212;-58
2024/02/22 05:06:43;;;;;;;1.83;1.50;;;9.90;99.90;;;;;;5084637;28;20200;-58
2024/02/22 05:09:13;;;;;;;1.60;1.50;;;9.70;99.90;;;;;;5070285;28;20482;-59
2024/02/22 05:11:48;;;;;;;1.83;1.57;;;9.70;99.90;;;;;;5079408;28;20413;-59
2024/02/22 05:14:14;;;;;;;2.17;1.30;;;9.70;99.90;;;;;;5081772;28;20422;-58
2024/02/22 05:16:40;;;;;;;1.97;1.80;;;9.70;99.90;;;;;;5090975;28;20435;-59
2024/02/22 05:19:06;;;;;;;2.27;1.50;;;9.70;99.90;;;;;;5090662;28;20428;-58
2024/02/22 05:21:32;;;;;;;1.50;1.40;;;9.70;99.90;;;;;;5090746;28;20454;-59
2024/02/22 05:23:58;;;;;;;6.00;1.57;;;9.60;99.90;;;;;;5090411;28;20447;-58
2024/02/22 05:26:23;;;;;;;1.30;1.20;;;9.60;99.90;;;;;;5085368;28;20198;-61
2024/02/22 05:28:49;;;;;;;2.00;1.53;;;9.60;99.90;;;;;;5070374;28;20670;-59
2024/02/22 05:31:23;;;;;;;1.87;1.63;;;9.60;99.90;;;;;;5088493;28;20177;-58
2024/02/22 05:33:49;;;;;;;1.23;1.13;;;9.60;99.90;;;;;;5090295;28;20233;-59
2024/02/22 05:36:19;;;;;;;1.23;1.10;;;9.60;99.90;;;;;;5090407;28;20518;-59
2024/02/22 05:38:45;;;;;;;1.70;1.60;;;9.60;99.90;;;;;;5090307;28;20408;-59
2024/02/22 05:41:11;;;;;;;1.50;1.40;;;9.60;99.90;;;;;;5071953;28;20755;-59
2024/02/22 05:43:36;;;;;;;1.27;1.17;;;9.60;99.90;;;;;;5070198;28;20412;-60
2024/02/22 05:46:02;;;;;;;1.87;1.50;;;9.60;99.90;;;;;;5070177;28;20194;-60
2024/02/22 05:48:28;;;;;;;1.40;1.27;;;9.60;99.90;;;;;;5082917;28;20252;-59
2024/02/22 05:50:54;;;;;;;2.00;1.13;;;9.50;99.90;;;;;;5090382;28;20269;-60
2024/02/22 05:53:21;;;;;;;2.03;1.40;;;9.40;99.90;;;;;;5090270;28;20506;-58
2024/02/22 05:55:46;;;;;;;1.60;1.40;;;9.40;99.90;;;;;;5075185;28;20849;-58
2024/02/22 05:58:14;;;;;;;2.03;1.83;;;9.40;99.90;;;;;;5070083;28;20482;-60
2024/02/22 06:00:40;;;;;;;2.60;1.83;;;9.50;99.90;;;;;;5070091;28;20644;-60
2024/02/22 06:03:06;;;;;;;2.23;1.80;;;9.40;99.90;;;;;;5070580;28;20424;-60
2024/02/22 06:05:32;;;;;;;1.90;1.80;;;9.40;99.90;;;;;;5083319;28;20427;-58
2024/02/22 06:07:57;;;;;;;1.80;1.40;;;9.30;99.90;;;;;;5090817;28;20898;-59
2024/02/22 06:10:23;;;;;;;1.53;1.37;;;9.30;99.90;;;;;;5090533;28;20581;-60
2024/02/22 06:12:48;;;;;;;1.37;1.27;;;9.20;99.90;;;;;;5090290;28;20196;-60
2024/02/22 06:15:14;;;;;;;1.50;1.40;;;9.10;99.90;;;;;;5090063;28;20260;-60
2024/02/22 06:17:40;;;;;;;2.60;1.53;;;9.10;99.90;;;;;;5085046;28;20162;-60
2024/02/22 06:20:06;;;;;;;1.43;1.33;;;9.10;99.90;;;;;;5071408;28;20586;-60
2024/02/22 06:22:33;;;;;;;2.30;2.10;;;9.00;99.90;;;;;;5068802;28;20179;-60
2024/02/22 06:24:58;;;;;;;1.43;1.33;;;9.10;99.90;;;;;;5093914;28;20533;-59
2024/02/22 06:27:24;;;;;;;1.70;1.60;;;9.10;99.90;;;;;;5094128;28;20457;-59
2024/02/22 06:29:49;;;;;;;1.97;1.60;;;9.10;99.90;;;;;;5088053;28;20180;-59
2024/02/22 06:32:15;;;;;;;1.63;1.40;;;9.20;99.90;;;;;;5075564;28;20722;-60
2024/02/22 06:34:42;;;;;;;1.93;1.70;;;9.10;99.90;;;;;;5079770;28;20189;-60
2024/02/22 06:37:08;;;;;;;4.67;2.00;;;9.10;99.90;;;;;;5093079;28;20490;-59
2024/02/22 06:39:34;;;;;;;1.37;1.27;;;9.20;99.90;;;;;;5094008;28;20457;-60
2024/02/22 06:41:59;;;;;;;2.27;1.67;;;9.20;99.90;;;;;;5094014;28;20419;-59
2024/02/22 06:44:25;;;;;;;1.70;1.60;;;9.30;99.90;;;;;;5093407;28;20221;-60
2024/02/22 06:46:52;;;;;;;3.93;1.40;;;9.20;99.90;;;;;;5079653;28;20178;-59
2024/02/22 06:49:18;;;;;;;1.80;1.70;;;9.20;99.90;;;;;;5074421;28;20179;-58
2024/02/22 06:51:44;;;;;;;1.40;1.20;;;9.30;99.90;;;;;;5074776;28;20493;-60
2024/02/22 06:54:10;;;;;;;2.73;1.57;;;9.20;99.90;;;;;;5074703;28;20227;-59
2024/02/22 06:56:35;;;;;;;2.07;1.40;;;9.20;99.90;;;;;;5093523;28;20197;-60
2024/02/22 06:59:01;;;;;;;1.93;1.70;;;9.10;99.90;;;;;;5093297;28;20256;-59
2024/02/22 07:01:28;;;;;;;2.97;1.87;;;9.00;99.90;;;;;;5093323;28;20311;-59
2024/02/22 07:03:53;;;;;;;1.70;1.60;;;9.00;99.90;;;;;;5093364;28;20210;-58
2024/02/22 07:06:19;;;;;;;3.17;1.60;;;9.00;99.90;;;;;;5093219;28;20446;-59
2024/02/22 07:08:44;;;;;;;1.60;1.50;;;9.00;99.90;;;;;;5093271;28;20541;-58
2024/02/22 07:11:11;;;;;;;9.47;2.50;;;9.00;99.90;;;;;;5092138;28;20184;-56
2024/02/22 07:13:37;;;;;;;3.30;1.53;;;9.10;99.90;;;;;;5085872;28;20165;-56
2024/02/22 07:16:03;;;;;;;3.80;1.73;;;9.00;99.90;;;;;;5093033;28;20550;-59
2024/02/22 07:18:28;;;;;;;6.67;1.63;;;8.90;99.90;;;;;;5090720;28;20199;-59
2024/02/22 07:20:57;;;;;;;3.50;1.47;;;8.90;99.90;;;;;;5090523;28;21059;-58
2024/02/22 07:23:22;;;;;;;2.80;2.03;;;8.90;99.90;;;;;;5092881;28;20182;-59
2024/02/22 07:25:48;;;;;;;3.80;2.10;;;9.10;99.90;;;;;;5084970;28;20432;-58
2024/02/22 07:28:14;;;;;;;2.30;1.80;;;9.00;99.90;;;;;;5074112;28;20181;-59
2024/02/22 07:30:41;;;;;;;2.13;1.93;;;9.00;99.90;;;;;;5086152;28;20214;-58
2024/02/22 07:33:09;;;;;;;2.40;1.80;;;8.90;99.90;;;;;;5093112;28;20416;-57
2024/02/22 07:35:35;;;;;;;1.73;1.63;;;8.90;99.90;;;;;;5092852;28;21022;-57
2024/02/22 07:38:00;;;;;;;4.13;1.60;;;8.90;99.90;;;;;;5075842;28;20420;-59
2024/02/22 07:40:26;;;;;;;2.77;2.00;;;8.80;99.90;;;;;;5075455;28;20511;-57
2024/02/22 07:42:52;;;;;;;2.90;2.17;;;8.90;99.90;;;;;;5077475;28;20177;-58
2024/02/22 07:45:18;;;;;;;3.20;1.77;;;8.80;99.90;;;;;;5073931;28;20205;-59
2024/02/22 07:47:44;;;;;;;1.70;1.60;;;8.80;99.90;;;;;;5087164;28;20177;-59
2024/02/22 07:50:10;;;;;;;3.40;3.13;;;8.80;99.90;;;;;;5092530;28;20414;-59
2024/02/22 07:52:39;;;;;;;1.83;1.47;;;8.90;99.90;;;;;;5092634;28;20203;-59
2024/02/22 07:55:06;;;;;;;3.97;2.20;;;8.80;99.90;;;;;;5092331;28;20479;-59
2024/02/22 07:57:31;;;;;;;3.13;2.23;;;8.80;99.90;;;;;;5092296;28;20750;-59
2024/02/22 07:59:57;;;;;;;1.87;1.73;;;8.80;99.90;;;;;;5092238;28;20408;-59
2024/02/22 08:02:23;;;;;;;2.20;2.00;;;8.90;99.90;;;;;;5089842;28;20174;-59
2024/02/22 08:04:50;;;;;;;6.70;2.20;;;8.90;99.90;;;;;;5086363;28;20202;-59
2024/02/22 08:07:19;;;;;;;2.80;2.23;;;8.90;99.90;;;;;;5083651;28;20437;-59
2024/02/22 08:09:44;;;;;;;1.90;1.80;;;8.80;99.90;;;;;;5092194;28;20421;-59
2024/02/22 08:12:10;;;;;;;2.03;1.83;;;8.90;99.90;;;;;;5074857;28;20515;-60
2024/02/22 08:14:36;;;;;;;1.47;1.37;;;8.80;99.90;;;;;;5088791;28;20667;-59
2024/02/22 08:17:01;;;;;;;3.43;2.27;;;8.80;99.90;;;;;;5091978;28;20468;-58
2024/02/22 08:19:27;;;;;;;2.00;1.80;;;8.80;99.90;;;;;;5091389;28;20187;-57
2024/02/22 08:21:53;;;;;;;3.00;2.43;;;8.90;99.90;;;;;;5092143;28;20871;-59
2024/02/22 08:24:21;;;;;;;2.20;2.00;;;8.90;99.90;;;;;;5073283;28;20185;-58
2024/02/22 08:26:46;;;;;;;2.30;2.10;;;8.90;99.90;;;;;;5088279;28;20419;-59
2024/02/22 08:29:13;;;;;;;3.77;2.50;;;8.90;99.90;;;;;;5091658;28;20476;-59
2024/02/22 08:31:38;;;;;;;3.10;2.37;;;8.90;99.90;;;;;;5061452;28;20658;-59
2024/02/22 08:34:04;;;;;;;2.90;2.60;;;8.90;99.90;;;;;;5071247;28;20416;-59
2024/02/22 08:36:29;;;;;;;1.70;1.60;;;8.90;99.90;;;;;;5074977;28;20193;-59
2024/02/22 08:38:57;;;;;;;5.43;1.73;;;8.90;99.90;;;;;;5091674;28;20605;-60
2024/02/22 08:41:23;;;;;;;6.90;2.10;;;9.00;99.90;;;;;;5091581;28;20166;-59
2024/02/22 08:43:48;;;;;;;2.83;2.33;;;8.90;99.90;;;;;;5090111;28;20986;-59
2024/02/22 08:46:14;;;;;;;2.87;2.67;;;8.80;99.90;;;;;;5089881;28;20200;-58
2024/02/22 08:48:40;;;;;;;3.00;2.33;;;8.80;99.90;;;;;;5083611;28;20203;-59
2024/02/22 08:51:08;;;;;;;2.53;2.33;;;8.90;99.90;;;;;;5091610;28;20251;-60
2024/02/22 08:53:34;;;;;;;3.10;2.90;;;8.90;99.90;;;;;;5090490;28;20410;-59
2024/02/22 08:56:00;;;;;;;3.43;3.13;;;8.90;99.90;;;;;;5091043;28;20830;-60
2024/02/22 08:58:26;;;;;;;4.33;3.40;;;8.90;99.90;;;;;;5090988;28;20507;-60
2024/02/22 09:00:51;;;;;;;3.27;2.97;;;8.80;99.90;;;;;;5091049;28;20655;-59
2024/02/22 09:03:17;;;;;;;2.60;2.40;;;8.90;99.90;;;;;;5090418;28;20193;-59
2024/02/22 09:05:44;;;;;;;2.83;2.10;;;8.90;99.90;;;;;;5090854;28;20188;-59
2024/02/22 09:08:10;;;;;;;2.90;2.67;;;8.90;99.90;;;;;;5082306;28;20220;-60
2024/02/22 09:10:35;;;;;;;5.80;2.50;;;9.00;99.90;;;;;;5074935;28;20439;-59
2024/02/22 09:13:01;;;;;;;3.03;2.73;;;8.90;99.90;;;;;;5086616;28;20170;-60
2024/02/22 09:15:26;;;;;;;5.27;3.17;;;8.90;99.90;;;;;;5087027;28;20197;-61
2024/02/22 09:17:52;;;;;;;2.90;2.70;;;9.00;99.90;;;;;;5076621;28;20273;-59
2024/02/22 09:20:18;;;;;;;3.50;2.80;;;9.00;99.90;;;;;;5073914;28;20178;-60
2024/02/22 09:22:43;;;;;;;2.80;2.60;;;8.90;99.90;;;;;;5085868;28;20253;-59
2024/02/22 09:25:10;;;;;;;3.73;3.33;;;9.00;99.90;;;;;;5070341;28;20214;-59
2024/02/22 09:27:36;;;;;;;4.10;3.17;;;9.00;99.90;;;;;;5081578;28;20197;-63
2024/02/22 09:30:03;;;;;;;2.90;2.67;;;9.00;99.90;;;;;;5083279;28;20412;-61
2024/02/22 09:32:29;;;;;;;4.13;2.67;;;9.00;99.90;;;;;;5078615;28;20435;-61
2024/02/22 09:34:55;;;;;;;3.30;3.10;;;9.10;99.90;;;;;;5070191;28;20433;-61
2024/02/22 09:37:21;;;;;;;6.13;4.17;;;9.10;99.90;;;;;;5070007;28;20459;-62
2024/02/22 09:39:50;;;;;;;3.27;3.07;;;9.10;99.90;;;;;;5070186;28;20172;-64
2024/02/22 09:42:18;;;;;;;3.40;3.10;;;9.10;99.90;;;;;;5087002;28;20604;-59
2024/02/22 09:44:46;;;;;;;4.20;2.83;;;9.10;99.90;;;;;;5082105;28;20962;-59
2024/02/22 09:47:14;;;;;;;3.43;3.10;;;9.00;99.90;;;;;;5081765;28;20431;-58
2024/02/22 09:49:41;;;;;;;3.10;2.90;;;9.00;99.90;;;;;;5070195;28;20419;-59
2024/02/22 09:52:08;;;;;;;3.90;3.20;;;9.10;99.90;;;;;;5069043;28;20416;-60
2024/02/22 09:54:34;;;;;;;3.47;3.17;;;9.10;99.90;;;;;;5067256;28;20526;-61
2024/02/22 09:56:59;;;;;;;2.93;2.70;;;9.20;99.90;;;;;;5073995;28;20475;-63
2024/02/22 09:59:25;;;;;;;4.33;3.20;;;9.10;99.90;;;;;;5086865;28;20180;-61
2024/02/22 10:01:51;;;;;;;3.40;3.03;;;9.10;99.90;;;;;;5077058;28;20178;-61
2024/02/22 10:04:19;;;;;;;4.00;3.70;;;9.20;99.90;;;;;;5089542;28;20664;-63
2024/02/22 10:06:46;;;;;;;4.60;3.43;;;9.30;99.90;;;;;;5070898;28;20189;-64
2024/02/22 10:09:12;;;;;;;3.83;3.37;;;9.40;99.90;;;;;;5082262;28;20745;-61
2024/02/22 10:11:44;;;;;;;3.57;3.27;;;9.30;99.90;;;;;;5088328;28;20424;-62
2024/02/22 10:14:14;;;;;;;3.30;3.00;;;9.20;99.90;;;;;;5089731;28;20180;-61
2024/02/22 10:16:45;;;;;;;3.10;2.80;;;9.20;99.90;;;;;;5089731;28;20523;-63
2024/02/22 10:19:15;;;;;;;3.50;3.20;;;9.20;99.90;;;;;;5081935;28;20472;-63
2024/02/22 10:21:41;;;;;;;3.30;3.00;;;9.30;99.90;;;;;;5082031;28;20488;-58
2024/02/22 10:24:10;;;;;;;2.87;2.60;;;9.40;99.90;;;;;;5089700;28;20418;-59
2024/02/22 10:26:36;;;;;;;3.37;3.17;;;9.40;99.90;;;;;;5064125;28;20422;-60
2024/02/22 10:29:07;;;;;;;3.10;2.90;;;9.30;99.90;;;;;;5083203;28;20416;-60
2024/02/22 10:31:43;;;;;;;3.90;3.37;;;9.40;99.90;;;;;;5069608;28;20194;-58
2024/02/22 10:34:10;;;;;;;3.33;3.03;;;9.40;99.90;;;;;;5077056;28;20443;-58
2024/02/22 10:36:36;;;;;;;2.90;2.70;;;9.40;99.90;;;;;;5087926;28;20498;-58
2024/02/22 10:39:03;;;;;;;4.20;3.43;;;9.40;99.90;;;;;;5083371;28;20444;-58
2024/02/22 10:41:29;;;;;;;2.83;2.63;;;9.50;99.90;;;;;;5072008;28;20178;-59
2024/02/22 10:43:57;;;;;;;3.17;2.97;;;9.50;99.90;;;;;;5075878;28;20408;-58
2024/02/22 10:46:27;;;;;;;2.70;2.27;;;9.60;99.90;;;;;;5069268;28;20977;-58
2024/02/22 10:48:53;;;;;;;2.90;2.70;;;9.60;99.90;;;;;;5068283;28;20412;-58
2024/02/22 10:51:22;;;;;;;2.60;2.40;;;9.70;99.90;;;;;;5069671;28;20431;-58
2024/02/22 10:53:55;;;;;;;3.33;3.03;;;9.80;99.90;;;;;;5084085;28;20182;-59
2024/02/22 10:56:25;;;;;;;3.20;3.00;;;9.80;99.90;;;;;;5071958;28;20525;-59
2024/02/22 10:58:58;;;;;;;3.73;2.93;;;9.90;99.90;;;;;;5056637;28;20434;-58
2024/02/22 11:01:26;;;;;;;3.87;3.03;;;10.10;99.90;;;;;;5080828;28;20561;-59
2024/02/22 11:03:52;;;;;;;3.93;3.47;;;10.20;99.90;;;;;;5076584;28;20428;-59
2024/02/22 11:06:23;;;;;;;3.60;3.30;;;10.30;99.90;;;;;;5090034;28;20435;-60
2024/02/22 11:08:57;;;;;;;3.30;3.00;;;10.50;99.90;;;;;;5084440;28;20416;-59
2024/02/22 11:11:27;;;;;;;4.30;3.17;;;10.50;99.90;;;;;;5091249;28;20447;-59
2024/02/22 11:13:57;;;;;;;3.30;2.87;;;10.70;99.90;;;;;;5087848;28;20455;-65
2024/02/22 11:16:33;;;;;;;4.73;2.87;;;10.70;99.90;;;;;;5072705;28;20453;-64
2024/02/22 11:19:10;;;;;;;2.77;2.57;;;10.70;99.90;;;;;;5072865;28;20413;-58
2024/02/22 11:21:37;;;;;;;2.67;2.47;;;10.90;99.90;;;;;;5078393;28;20404;-59
2024/02/22 11:24:23;;;;;;;2.67;2.47;;;10.90;99.90;;;;;;5092866;28;20411;-59
2024/02/22 11:26:50;;;;;;;2.50;2.30;;;10.80;99.90;;;;;;5084638;28;20905;-59
2024/02/22 11:29:25;;;;;;;3.67;2.97;;;10.90;99.90;;;;;;5092752;28;20415;-59
2024/02/22 11:31:51;;;;;;;2.70;2.50;;;10.90;99.90;;;;;;5081186;28;20431;-59
2024/02/22 11:34:16;;;;;;;2.70;2.50;;;10.90;99.90;;;;;;5088245;28;20766;-59
2024/02/22 11:36:43;;;;;;;2.17;2.07;;;10.70;99.90;;;;;;5092866;28;20190;-58
2024/02/22 11:39:09;;;;;;;4.70;2.97;;;11.00;99.90;;;;;;5092252;28;20182;-58
2024/02/22 11:41:35;;;;;;;2.47;2.27;;;11.00;99.90;;;;;;5090208;28;20412;-58
2024/02/22 11:44:06;;;;;;;2.97;2.47;;;11.00;99.90;;;;;;5084649;28;20411;-59
2024/02/22 11:46:37;;;;;;;3.00;2.80;;;11.00;99.90;;;;;;5085742;28;20428;-57
2024/02/22 11:49:04;;;;;;;2.53;2.33;;;11.20;99.90;;;;;;5066825;28;20425;-58
2024/02/22 11:51:30;;;;;;;2.50;2.30;;;11.10;99.90;;;;;;5082132;28;20413;-58
2024/02/22 11:53:57;;;;;;;2.40;2.20;;;11.10;99.90;;;;;;5092011;28;20473;-58
2024/02/22 11:56:23;;;;;;;2.73;2.37;;;11.00;99.90;;;;;;5091391;28;20212;-58
2024/02/22 11:58:49;;;;;;;2.53;2.33;;;11.00;99.90;;;;;;5072083;28;20436;-59
2024/02/22 12:01:15;;;;;;;4.60;2.27;;;11.00;99.90;;;;;;5078144;28;20444;-59
2024/02/22 12:03:43;;;;;;;2.90;1.83;;;11.10;99.90;;;;;;5091216;28;20653;-59
2024/02/22 12:06:11;;;;;;;1.80;1.70;;;11.00;99.90;;;;;;5075149;28;20440;-59
2024/02/22 12:08:37;;;;;;;2.27;1.80;;;10.90;99.90;;;;;;5081872;28;20452;-60
2024/02/22 12:11:04;;;;;;;1.87;1.77;;;10.90;99.90;;;;;;5090061;28;20451;-60
2024/02/22 12:13:30;;;;;;;2.00;1.90;;;10.90;99.90;;;;;;5083907;28;20177;-60
2024/02/22 12:16:09;;;;;;;2.33;2.13;;;10.80;99.90;;;;;;5079472;28;20452;-58
2024/02/22 12:18:36;;;;;;;2.37;2.10;;;10.80;99.90;;;;;;5089475;28;20164;-58
2024/02/22 12:21:11;;;;;;;2.27;2.07;;;10.70;99.90;;;;;;5086214;28;20452;-60
2024/02/22 12:23:36;;;;;;;2.30;2.13;;;10.70;99.90;;;;;;5089602;28;20411;-59
2024/02/22 12:26:08;;;;;;;1.90;1.73;;;10.80;99.90;;;;;;5078984;28;20460;-58
2024/02/22 12:28:37;;;;;;;3.47;2.20;;;10.80;99.90;;;;;;5080087;28;20519;-59
2024/02/22 12:31:03;;;;;;;2.00;1.90;;;10.90;99.90;;;;;;5079939;28;20969;-55
2024/02/22 12:33:31;;;;;;;2.10;1.90;;;11.00;99.90;;;;;;5071202;28;20412;-55
2024/02/22 12:35:57;;;;;;;2.20;2.00;;;11.00;99.90;;;;;;5076143;28;20479;-58
2024/02/22 12:38:23;;;;;;;2.70;1.90;;;11.00;99.90;;;;;;5079614;28;20419;-60
2024/02/22 12:40:48;;;;;;;2.40;2.30;;;11.00;99.90;;;;;;5081287;28;20631;-59
2024/02/22 12:43:16;;;;;;;1.53;1.43;;;11.00;99.90;;;;;;5091698;28;20921;-60
2024/02/22 12:45:41;;;;;;;2.37;2.00;;;10.90;99.90;;;;;;5091355;28;20209;-59
2024/02/22 12:48:08;;;;;;;2.57;2.37;;;10.90;99.90;;;;;;5091100;28;20510;-53
2024/02/22 12:50:34;;;;;;;2.10;2.00;;;10.90;99.90;;;;;;5080972;28;20178;-57
2024/02/22 12:53:00;;;;;;;2.50;2.30;;;10.90;99.90;;;;;;5079785;28;20453;-56